Time;durP1;ratioP1;P1;durP2;ratioP2;P2;SDS_P1;SDS_P2;PMS_P1;PMS_P2;Temp;Humidity;BMP_temperature;BMP_pressure;BME280_temperature;BME280_humidity;BME280_pressure;Samples;Min_cycle;Max_cycle;Signal;HPM_P1;HPM_P2
2023/03/19 00:02:06;;;;;;;;;;;9.80;99.90;;;;;;5048768;28;20454;-76
2023/03/19 00:04:32;;;;;;;;;;;9.80;99.90;;;;;;5062152;28;19908;-76
2023/03/19 00:06:57;;;;;;;;;;;9.80;99.90;;;;;;5066273;28;19909;-76
2023/03/19 00:09:23;;;;;;;;;;;9.80;99.90;;;;;;5049650;28;20277;-76
2023/03/19 00:11:48;;;;;;;;;;;9.80;99.90;;;;;;5066745;28;19917;-76
2023/03/19 00:14:14;;;;;;;;;;;9.80;99.90;;;;;;5061591;28;19912;-76
2023/03/19 00:16:39;;;;;;;;;;;9.80;99.90;;;;;;5067588;28;19939;-76
2023/03/19 00:19:05;;;;;;;;;;;9.80;99.90;;;;;;5061703;28;19913;-76
2023/03/19 00:21:31;;;;;;;;;;;9.80;99.90;;;;;;5066512;28;19927;-76
2023/03/19 00:23:59;;;;;;;;;;;9.80;99.90;;;;;;5061876;28;19909;-76
2023/03/19 00:26:26;;;;;;;;;;;9.80;99.90;;;;;;5067630;28;19919;-76
2023/03/19 00:28:51;;;;;;;;;;;9.80;99.90;;;;;;5061851;28;20003;-76
2023/03/19 00:31:17;;;;;;;;;;;9.80;99.90;;;;;;5066820;28;20007;-75
2023/03/19 00:33:42;;;;;;;;;;;9.80;99.90;;;;;;5063098;28;20031;-76
2023/03/19 00:36:09;;;;;;;;;;;9.80;99.90;;;;;;5040927;28;19978;-76
2023/03/19 00:38:35;;;;;;;;;;;9.80;99.90;;;;;;5064373;28;19934;-76
2023/03/19 00:41:02;;;;;;;;;;;9.80;99.90;;;;;;5064809;28;20250;-76
2023/03/19 00:43:27;;;;;;;;;;;9.80;99.90;;;;;;5065424;28;19909;-76
2023/03/19 00:45:53;;;;;;;;;;;9.70;99.90;;;;;;5063882;28;19919;-76
2023/03/19 00:48:20;;;;;;;;;;;9.80;99.90;;;;;;5065858;28;19920;-76
2023/03/19 00:50:46;;;;;;;;;;;9.80;99.90;;;;;;5044963;28;19913;-76
2023/03/19 00:53:11;;;;;;;;;;;9.70;99.90;;;;;;5069258;28;20392;-76
2023/03/19 00:55:37;;;;;;;;;;;9.70;99.90;;;;;;5062923;28;19912;-76
2023/03/19 00:58:02;;;;;;;;;;;9.70;99.90;;;;;;5060094;28;19912;-76
2023/03/19 01:00:28;;;;;;;;;;;9.70;99.90;;;;;;5062366;28;19913;-76
2023/03/19 01:02:54;;;;;;;;;;;9.70;99.90;;;;;;5066690;28;20320;-76
2023/03/19 01:05:19;;;;;;;;;;;9.70;99.90;;;;;;5060728;28;19912;-76
2023/03/19 01:07:45;;;;;;;;;;;9.70;99.90;;;;;;5070901;28;20360;-76
2023/03/19 01:10:10;;;;;;;;;;;9.70;99.90;;;;;;5064934;28;20022;-76
2023/03/19 01:12:36;;;;;;;;;;;9.70;99.90;;;;;;5070847;28;20478;-76
2023/03/19 01:15:02;;;;;;;;;;;9.70;99.90;;;;;;5065106;28;19908;-76
2023/03/19 01:17:28;;;;;;;;;;;9.60;99.90;;;;;;5071034;28;19942;-76
2023/03/19 01:19:54;;;;;;;;;;;9.60;99.90;;;;;;5064791;28;20270;-76
2023/03/19 01:22:19;;;;;;;;;;;9.60;99.90;;;;;;5069793;28;19966;-76
2023/03/19 01:24:45;;;;;;;;;;;9.60;99.90;;;;;;5064732;28;20377;-76
2023/03/19 01:27:11;;;;;;;;;;;9.60;99.90;;;;;;5070741;28;19912;-76
2023/03/19 01:29:37;;;;;;;;;;;9.60;99.90;;;;;;5064811;28;19916;-76
2023/03/19 01:32:02;;;;;;;;;;;9.60;99.90;;;;;;5070400;28;19940;-76
2023/03/19 01:34:28;;;;;;;;;;;9.50;99.90;;;;;;5064449;28;20424;-76
2023/03/19 01:36:54;;;;;;;;;;;9.60;99.90;;;;;;5069838;28;19928;-76
2023/03/19 01:39:19;;;;;;;;;;;9.50;99.90;;;;;;5064540;28;20354;-76
2023/03/19 01:41:45;;;;;;;;;;;9.50;99.90;;;;;;5070212;28;19912;-76
2023/03/19 01:44:27;;;;;;;;;;;9.50;99.90;;;;;;5064338;28;19913;-76
2023/03/19 01:46:53;;;;;;;;;;;9.50;99.90;;;;;;5070576;28;19912;-76
2023/03/19 01:49:20;;;;;;;;;;;9.50;99.90;;;;;;5064574;28;19912;-76
2023/03/19 01:51:46;;;;;;;;;;;9.40;99.90;;;;;;5069470;28;19912;-76
2023/03/19 01:54:13;;;;;;;;;;;9.40;99.90;;;;;;5064314;28;19932;-76
2023/03/19 01:56:40;;;;;;;;;;;9.40;99.90;;;;;;5067062;28;20504;-76
2023/03/19 01:59:09;;;;;;;;;;;9.40;99.90;;;;;;5045702;28;19913;-76
2023/03/19 02:01:37;;;;;;;;;;;9.40;99.90;;;;;;5050862;28;19912;-76
2023/03/19 02:04:03;;;;;;;;;;;9.40;99.90;;;;;;5063812;28;19974;-76
2023/03/19 02:06:29;;;;;;;;;;;9.40;99.90;;;;;;5068825;28;20377;-76
2023/03/19 02:08:55;;;;;;;;;;;9.40;99.90;;;;;;5064348;28;19924;-76
2023/03/19 02:11:21;;;;;;;;;;;9.30;99.90;;;;;;5069803;28;19919;-76
2023/03/19 02:13:46;;;;;;;;;;;9.30;99.90;;;;;;5065043;28;19913;-75
2023/03/19 02:16:13;;;;;;;;;;;9.30;99.90;;;;;;5068955;28;20487;-75
2023/03/19 02:18:38;;;;;;;;;;;9.30;99.90;;;;;;5065507;28;19912;-75
2023/03/19 02:21:05;;;;;;;;;;;9.30;99.90;;;;;;5066726;28;20057;-76
2023/03/19 02:23:38;;;;;;;;;;;9.30;99.90;;;;;;5055272;28;19912;-76
2023/03/19 02:26:07;;;;;;;;;;;9.30;99.90;;;;;;5067605;28;20570;-75
2023/03/19 02:28:35;;;;;;;;;;;9.20;99.90;;;;;;5056225;28;20539;-76
2023/03/19 02:31:01;;;;;;;;;;;9.20;99.90;;;;;;5066929;28;20356;-75
2023/03/19 02:33:26;;;;;;;;;;;9.30;99.90;;;;;;5067404;28;19913;-76
2023/03/19 02:35:53;;;;;;;;;;;9.20;99.90;;;;;;5064954;28;20300;-75
2023/03/19 02:38:21;;;;;;;;;;;9.20;99.90;;;;;;5068083;28;19956;-76
2023/03/19 02:40:52;;;;;;;;;;;9.20;99.90;;;;;;5064563;28;19912;-76
2023/03/19 02:43:19;;;;;;;;;;;9.20;99.90;;;;;;5068080;28;19913;-76
2023/03/19 02:45:45;;;;;;;;;;;9.20;99.90;;;;;;5067966;28;19912;-76
2023/03/19 02:48:10;;;;;;;;;;;9.20;99.90;;;;;;5067820;28;19913;-76
2023/03/19 02:50:36;;;;;;;;;;;9.10;99.90;;;;;;5065773;28;19943;-76
2023/03/19 02:53:01;;;;;;;;;;;9.10;99.90;;;;;;5068029;28;19916;-76
2023/03/19 02:55:27;;;;;;;;;;;9.10;99.90;;;;;;5064499;28;19932;-76
2023/03/19 02:57:53;;;;;;;;;;;9.10;99.90;;;;;;5063129;28;19916;-76
2023/03/19 03:00:19;;;;;;;;;;;9.10;99.90;;;;;;5052974;28;20619;-75
2023/03/19 03:02:45;;;;;;;;;;;9.10;99.90;;;;;;5068845;28;19920;-76
2023/03/19 03:05:11;;;;;;;;;;;9.10;99.90;;;;;;5049173;28;19913;-76
2023/03/19 03:07:37;;;;;;;;;;;9.10;99.90;;;;;;5068994;28;20416;-76
2023/03/19 03:10:02;;;;;;;;;;;9.10;99.90;;;;;;5062696;28;19920;-76
2023/03/19 03:12:28;;;;;;;;;;;9.10;99.90;;;;;;5068640;28;19919;-76
2023/03/19 03:14:53;;;;;;;;;;;9.10;99.90;;;;;;5062743;28;19924;-76
2023/03/19 03:17:19;;;;;;;;;;;9.10;99.90;;;;;;5068671;28;20320;-76
2023/03/19 03:19:44;;;;;;;;;;;9.10;99.90;;;;;;5062445;28;19916;-76
2023/03/19 03:22:10;;;;;;;;;;;9.10;99.90;;;;;;5067815;28;19924;-76
2023/03/19 03:24:38;;;;;;;;;;;9.10;99.90;;;;;;5051406;28;20289;-76
2023/03/19 03:27:04;;;;;;;;;;;9.10;99.90;;;;;;5066124;28;19912;-76
2023/03/19 03:29:30;;;;;;;;;;;9.10;99.90;;;;;;5062668;28;19920;-76
2023/03/19 03:31:55;;;;;;;;;;;9.10;99.90;;;;;;5068121;28;19920;-76
2023/03/19 03:34:21;;;;;;;;;;;9.00;99.90;;;;;;5062556;28;20454;-75
2023/03/19 03:36:46;;;;;;;;;;;9.10;99.90;;;;;;5067613;28;20415;-76
2023/03/19 03:39:12;;;;;;;;;;;9.10;99.90;;;;;;5062332;28;19909;-76
2023/03/19 03:41:38;;;;;;;;;;;9.10;99.90;;;;;;5067813;28;19919;-76
2023/03/19 03:44:04;;;;;;;;;;;9.10;99.90;;;;;;5062163;28;19909;-76
2023/03/19 03:46:29;;;;;;;;;;;9.00;99.90;;;;;;5068264;28;19955;-76
2023/03/19 03:48:55;;;;;;;;;;;9.10;99.90;;;;;;5065943;28;19912;-76
2023/03/19 03:51:21;;;;;;;;;;;9.00;99.90;;;;;;5066969;28;19912;-76
2023/03/19 03:53:46;;;;;;;;;;;9.00;99.90;;;;;;5053218;28;19948;-76
2023/03/19 03:56:12;;;;;;;;;;;9.10;99.90;;;;;;5066805;28;19916;-76
2023/03/19 03:58:38;;;;;;;;;;;9.00;99.90;;;;;;5058305;28;19920;-76
2023/03/19 04:01:03;;;;;;;;;;;9.10;99.90;;;;;;5059717;28;19913;-76
2023/03/19 04:03:29;;;;;;;;;;;9.10;99.90;;;;;;5065378;28;19922;-76
2023/03/19 04:05:54;;;;;;;;;;;9.00;99.90;;;;;;5063781;28;20281;-76
2023/03/19 04:08:20;;;;;;;;;;;9.00;99.90;;;;;;5066420;28;19940;-76
2023/03/19 04:10:45;;;;;;;;;;;9.10;99.90;;;;;;5063079;28;19912;-76
2023/03/19 04:13:11;;;;;;;;;;;9.10;99.90;;;;;;5066743;28;19947;-76
2023/03/19 04:15:37;;;;;;;;;;;9.10;99.90;;;;;;5063268;28;20322;-76
2023/03/19 04:18:02;;;;;;;;;;;9.10;99.90;;;;;;5066333;28;19913;-76
2023/03/19 04:20:29;;;;;;;;;;;9.10;99.90;;;;;;5062044;28;20285;-76
2023/03/19 04:22:55;;;;;;;;;;;9.10;99.90;;;;;;5067082;28;19944;-76
2023/03/19 04:25:20;;;;;;;;;;;9.00;99.90;;;;;;5062232;28;19951;-76
2023/03/19 04:27:46;;;;;;;;;;;9.10;99.90;;;;;;5067835;28;19983;-76
2023/03/19 04:30:12;;;;;;;;;;;9.00;99.90;;;;;;5061473;28;20451;-76
2023/03/19 04:32:37;;;;;;;;;;;9.00;99.90;;;;;;5067631;28;19908;-76
2023/03/19 04:35:03;;;;;;;;;;;9.00;99.90;;;;;;5060547;28;19951;-76
2023/03/19 04:37:28;;;;;;;;;;;9.00;99.90;;;;;;5059288;28;20037;-76
2023/03/19 04:39:54;;;;;;;;;;;9.00;99.90;;;;;;5071677;28;19920;-76
2023/03/19 04:42:20;;;;;;;;;;;9.00;99.90;;;;;;5072856;28;20007;-76
2023/03/19 04:44:46;;;;;;;;;;;9.00;99.90;;;;;;5068014;28;20401;-76
2023/03/19 04:47:11;;;;;;;;;;;9.00;99.90;;;;;;5074120;28;19912;-76
2023/03/19 04:49:37;;;;;;;;;;;9.00;99.90;;;;;;5068053;28;19931;-76
2023/03/19 04:52:03;;;;;;;;;;;9.00;99.90;;;;;;5072727;28;20258;-76
2023/03/19 04:54:28;;;;;;;;;;;9.00;99.90;;;;;;5068109;28;19919;-76
2023/03/19 04:56:54;;;;;;;;;;;9.00;99.90;;;;;;5070336;28;19967;-76
2023/03/19 04:59:21;;;;;;;;;;;9.00;99.90;;;;;;5067337;28;19986;-76
2023/03/19 05:01:46;;;;;;;;;;;9.00;99.90;;;;;;5054830;28;19919;-76
2023/03/19 05:04:12;;;;;;;;;;;9.00;99.90;;;;;;5067689;28;20459;-76
2023/03/19 05:06:38;;;;;;;;;;;9.00;99.90;;;;;;5072622;28;19912;-76
2023/03/19 05:09:05;;;;;;;;;;;9.00;99.90;;;;;;5068213;28;19915;-76
2023/03/19 05:11:31;;;;;;;;;;;9.00;99.90;;;;;;5073592;28;20515;-76
2023/03/19 05:13:56;;;;;;;;;;;9.00;99.90;;;;;;5068069;28;20003;-76
2023/03/19 05:16:22;;;;;;;;;;;9.00;99.90;;;;;;5073735;28;20563;-76
2023/03/19 05:18:47;;;;;;;;;;;9.00;99.90;;;;;;5068917;28;19951;-76
2023/03/19 05:21:13;;;;;;;;;;;9.00;99.90;;;;;;5070041;28;19920;-76
2023/03/19 05:23:39;;;;;;;;;;;9.00;99.90;;;;;;5067691;28;19962;-76
2023/03/19 05:26:05;;;;;;;;;;;9.00;99.90;;;;;;5071982;28;19920;-75
2023/03/19 05:28:31;;;;;;;;;;;9.00;99.90;;;;;;5071117;28;19982;-76
2023/03/19 05:30:57;;;;;;;;;;;9.00;99.90;;;;;;5070639;28;19966;-76
2023/03/19 05:33:24;;;;;;;;;;;9.00;99.90;;;;;;5070966;28;20221;-76
2023/03/19 05:35:50;;;;;;;;;;;9.00;99.90;;;;;;5049307;28;19942;-76
2023/03/19 05:38:16;;;;;;;;;;;9.00;99.90;;;;;;5070567;28;19923;-76
2023/03/19 05:40:42;;;;;;;;;;;9.00;99.90;;;;;;5068739;28;19916;-76
2023/03/19 05:43:09;;;;;;;;;;;9.00;99.90;;;;;;5072102;28;20421;-76
2023/03/19 05:45:35;;;;;;;;;;;9.00;99.90;;;;;;5068986;28;19917;-76
2023/03/19 05:48:01;;;;;;;;;;;9.00;99.90;;;;;;5072555;28;19917;-76
2023/03/19 05:50:26;;;;;;;;;;;9.00;99.90;;;;;;5067619;28;19912;-76
2023/03/19 05:52:52;;;;;;;;;;;9.00;99.90;;;;;;5070351;28;19916;-76
2023/03/19 05:55:17;;;;;;;;;;;9.00;99.90;;;;;;5069029;28;19913;-76
2023/03/19 05:57:43;;;;;;;;;;;9.00;99.90;;;;;;5064414;28;19916;-76
2023/03/19 06:00:09;;;;;;;;;;;9.00;99.90;;;;;;5064029;28;19912;-76
2023/03/19 06:02:35;;;;;;;;;;;9.00;99.90;;;;;;5069937;28;19955;-75
2023/03/19 06:05:00;;;;;;;;;;;9.00;99.90;;;;;;5067093;28;19940;-75
2023/03/19 06:07:26;;;;;;;;;;;9.00;99.90;;;;;;5076567;28;19952;-75
2023/03/19 06:09:51;;;;;;;;;;;9.00;99.90;;;;;;5064163;28;19947;-76
2023/03/19 06:12:17;;;;;;;;;;;9.00;99.90;;;;;;5072936;28;20318;-76
2023/03/19 06:14:42;;;;;;;;;;;9.00;99.90;;;;;;5076714;28;19970;-76
2023/03/19 06:17:08;;;;;;;;;;;9.00;99.90;;;;;;5075871;28;20538;-76
2023/03/19 06:19:34;;;;;;;;;;;9.00;99.90;;;;;;5071426;28;19912;-75
2023/03/19 06:21:59;;;;;;;;;;;9.00;99.90;;;;;;5077135;28;19920;-76
2023/03/19 06:24:25;;;;;;;;;;;9.00;99.90;;;;;;5075390;28;19915;-75
2023/03/19 06:26:51;;;;;;;;;;;9.00;99.90;;;;;;5078775;28;19924;-76
2023/03/19 06:29:16;;;;;;;;;;;9.10;99.90;;;;;;5078090;28;19983;-75
2023/03/19 06:31:42;;;;;;;;;;;9.10;99.90;;;;;;5080179;28;19908;-76
2023/03/19 06:34:08;;;;;;;;;;;9.10;99.90;;;;;;5076990;28;19912;-75
2023/03/19 06:36:33;;;;;;;;;;;9.10;99.90;;;;;;5076579;28;20538;-76
2023/03/19 06:38:59;;;;;;;;;;;9.00;99.90;;;;;;5063611;28;19917;-76
2023/03/19 06:41:25;;;;;;;;;;;9.10;99.90;;;;;;5068695;28;19977;-75
2023/03/19 06:43:51;;;;;;;;;;;9.10;99.90;;;;;;5064023;28;20340;-75
2023/03/19 06:46:16;;;;;;;;;;;9.10;99.90;;;;;;5068789;28;19963;-76
2023/03/19 06:48:42;;;;;;;;;;;9.10;99.90;;;;;;5067728;28;19920;-75
2023/03/19 06:51:07;;;;;;;;;;;9.10;99.90;;;;;;5058785;28;19916;-75
2023/03/19 06:53:33;;;;;;;;;;;9.10;99.90;;;;;;5066124;28;19962;-75
2023/03/19 06:55:58;;;;;;;;;;;9.10;99.90;;;;;;5066517;28;19926;-75
2023/03/19 06:58:24;;;;;;;;;;;9.10;99.90;;;;;;5061331;28;19919;-76
2023/03/19 07:00:49;;;;;;;;;;;9.10;99.90;;;;;;5064627;28;20564;-75
2023/03/19 07:03:15;;;;;;;;;;;9.10;99.90;;;;;;5067468;28;20026;-76
2023/03/19 07:05:40;;;;;;;;;;;9.10;99.90;;;;;;5063030;28;19912;-76
2023/03/19 07:08:10;;;;;;;;;;;9.10;99.90;;;;;;5066558;28;19923;-76
2023/03/19 07:10:39;;;;;;;;;;;9.10;99.90;;;;;;5062981;28;19917;-76
2023/03/19 07:13:05;;;;;;;;;;;9.20;99.90;;;;;;5072249;28;19916;-76
2023/03/19 07:15:30;;;;;;;;;;;9.20;99.90;;;;;;5056787;28;19912;-76
2023/03/19 07:17:56;;;;;;;;;;;9.20;99.90;;;;;;5069366;28;20619;-76
2023/03/19 07:20:22;;;;;;;;;;;9.20;99.90;;;;;;5074030;28;20380;-76
2023/03/19 07:22:49;;;;;;;;;;;9.20;99.90;;;;;;5077066;28;19918;-76
2023/03/19 07:25:14;;;;;;;;;;;9.20;99.90;;;;;;5073575;28;19913;-76
2023/03/19 07:27:40;;;;;;;;;;;9.30;99.90;;;;;;5077320;28;20390;-76
2023/03/19 07:30:06;;;;;;;;;;;9.30;99.90;;;;;;5073486;28;19953;-76
2023/03/19 07:32:31;;;;;;;;;;;9.30;99.90;;;;;;5079576;28;19913;-75
2023/03/19 07:34:57;;;;;;;;;;;9.30;99.90;;;;;;5078501;28;20353;-76
2023/03/19 07:37:22;;;;;;;;;;;9.40;99.90;;;;;;5077118;28;19916;-76
2023/03/19 07:39:48;;;;;;;;;;;9.30;99.90;;;;;;5063237;28;19916;-75
2023/03/19 07:42:13;;;;;;;;;;;9.40;99.90;;;;;;5067833;28;19916;-75
2023/03/19 07:44:39;;;;;;;;;;;9.40;99.90;;;;;;5062092;28;20327;-75
2023/03/19 07:47:05;;;;;;;;;;;9.40;99.90;;;;;;5068073;28;19919;-75
2023/03/19 07:49:30;;;;;;;;;;;9.40;99.90;;;;;;5065663;28;20368;-75
2023/03/19 07:51:55;;;;;;;;;;;9.40;99.90;;;;;;5078659;28;19991;-75
2023/03/19 07:54:22;;;;;;;;;;;9.40;99.90;;;;;;5076371;28;19967;-75
2023/03/19 07:56:48;;;;;;;;;;;9.40;99.90;;;;;;5065200;28;20634;-75
2023/03/19 07:59:13;;;;;;;;;;;9.40;99.90;;;;;;5060424;28;19912;-75
2023/03/19 08:01:39;;;;;;;;;;;9.50;99.90;;;;;;5067599;28;19913;-76
2023/03/19 08:04:04;;;;;;;;;;;9.50;99.90;;;;;;5062540;28;19919;-75
2023/03/19 08:06:30;;;;;;;;;;;9.60;99.90;;;;;;5066823;28;19923;-75
2023/03/19 08:08:55;;;;;;;;;;;9.60;99.90;;;;;;5062009;28;19951;-75
2023/03/19 08:11:21;;;;;;;;;;;9.60;99.90;;;;;;5067276;28;20004;-76
2023/03/19 08:13:46;;;;;;;;;;;9.60;99.90;;;;;;5062619;28;19913;-76
2023/03/19 08:16:12;;;;;;;;;;;9.70;99.90;;;;;;5065824;28;19912;-76
2023/03/19 08:18:38;;;;;;;;;;;9.70;99.90;;;;;;5063863;28;20438;-76
2023/03/19 08:21:03;;;;;;;;;;;9.70;99.90;;;;;;5064443;28;20030;-76
2023/03/19 08:23:29;;;;;;;;;;;9.70;99.90;;;;;;5058481;28;20346;-76
2023/03/19 08:25:55;;;;;;;;;;;9.70;99.90;;;;;;5066485;28;19912;-76
2023/03/19 08:28:21;;;;;;;;;;;9.80;99.90;;;;;;5068034;28;20394;-76
2023/03/19 08:30:47;;;;;;;;;;;9.70;99.90;;;;;;5063233;28;19916;-76
2023/03/19 08:33:12;;;;;;;;;;;9.70;99.90;;;;;;5065930;28;19913;-76
2023/03/19 08:35:38;;;;;;;;;;;9.80;99.90;;;;;;5061923;28;19919;-76
2023/03/19 08:38:04;;;;;;;;;;;9.80;99.90;;;;;;5066056;28;19940;-76
2023/03/19 08:40:29;;;;;;;;;;;9.80;99.90;;;;;;5062717;28;19921;-76
2023/03/19 08:42:55;;;;;;;;;;;9.80;99.90;;;;;;5068706;28;19916;-76
2023/03/19 08:45:21;;;;;;;;;;;9.80;99.90;;;;;;5061951;28;19920;-76
2023/03/19 08:47:48;;;;;;;;;;;9.80;99.90;;;;;;5067250;28;19917;-76
2023/03/19 08:50:14;;;;;;;;;;;9.80;99.90;;;;;;5060362;28;19952;-76
2023/03/19 08:52:40;;;;;;;;;;;9.80;99.90;;;;;;5067060;28;19955;-76
2023/03/19 08:55:06;;;;;;;;;;;9.90;99.90;;;;;;5061211;28;19948;-76
2023/03/19 08:57:31;;;;;;;;;;;9.90;99.90;;;;;;5056432;28;19916;-76
2023/03/19 08:59:57;;;;;;;;;;;9.90;99.90;;;;;;5052870;28;19935;-76
2023/03/19 09:02:23;;;;;;;;;;;9.80;99.90;;;;;;5057298;28;19920;-76
2023/03/19 09:04:48;;;;;;;;;;;9.90;99.90;;;;;;5061367;28;19919;-76
2023/03/19 09:07:16;;;;;;;;;;;9.90;99.90;;;;;;5067477;28;20031;-76
2023/03/19 09:09:42;;;;;;;;;;;9.90;99.90;;;;;;5061190;28;19912;-76
2023/03/19 09:12:09;;;;;;;;;;;10.00;99.90;;;;;;5066734;28;20345;-75
2023/03/19 09:14:35;;;;;;;;;;;10.00;99.90;;;;;;5060990;28;19912;-76
2023/03/19 09:17:01;;;;;;;;;;;10.00;99.90;;;;;;5064712;28;19962;-76
2023/03/19 09:19:26;;;;;;;;;;;10.00;99.90;;;;;;5071679;28;20004;-76
2023/03/19 09:21:52;;;;;;;;;;;10.10;99.90;;;;;;5076241;28;20360;-76
2023/03/19 09:24:20;;;;;;;;;;;10.10;99.90;;;;;;5058081;28;19912;-76
2023/03/19 09:26:46;;;;;;;;;;;10.10;99.90;;;;;;5076001;28;19934;-76
2023/03/19 09:29:12;;;;;;;;;;;10.20;99.90;;;;;;5078165;28;20706;-76
2023/03/19 09:31:37;;;;;;;;;;;10.20;99.90;;;;;;5076115;28;19912;-76
2023/03/19 09:34:03;;;;;;;;;;;10.20;99.90;;;;;;5078563;28;19919;-77
2023/03/19 09:36:29;;;;;;;;;;;10.20;99.90;;;;;;5077322;28;19919;-77
2023/03/19 09:38:54;;;;;;;;;;;10.30;99.90;;;;;;5072597;28;20574;-77
2023/03/19 09:41:39;;;;;;;;;;;10.30;99.90;;;;;;5069643;28;19994;-77
2023/03/19 09:44:10;;;;;;;;;;;10.40;99.90;;;;;;5075370;28;19920;-77
2023/03/19 09:46:43;;;;;;;;;;;10.40;99.90;;;;;;5079182;28;19912;-77
2023/03/19 09:49:11;;;;;;;;;;;10.40;99.90;;;;;;5072245;28;19916;-77
2023/03/19 09:51:40;;;;;;;;;;;10.50;99.90;;;;;;5078632;28;19955;-77
2023/03/19 09:54:21;;;;;;;;;;;10.50;99.90;;;;;;5067409;28;19913;-77
2023/03/19 09:56:46;;;;;;;;;;;10.60;99.90;;;;;;5061918;28;20601;-77
2023/03/19 09:59:12;;;;;;;;;;;10.70;99.90;;;;;;5068045;28;19912;-77
2023/03/19 10:01:39;;;;;;;;;;;10.70;99.90;;;;;;5069646;28;19913;-77
2023/03/19 10:04:23;;;;;;;;;;;10.80;99.90;;;;;;5064118;28;19920;-77
2023/03/19 10:06:52;;;;;;;;;;;10.80;99.90;;;;;;5065612;28;20677;-77
2023/03/19 10:09:21;;;;;;;;;;;10.90;99.90;;;;;;5068703;28;19917;-77
2023/03/19 10:12:01;;;;;;;;;;;10.90;99.90;;;;;;5075241;28;20373;-77
2023/03/19 10:14:26;;;;;;;;;;;11.00;99.90;;;;;;5069877;28;19990;-77
2023/03/19 10:16:54;;;;;;;;;;;11.10;99.90;;;;;;5071685;28;19924;-77
2023/03/19 10:19:40;;;;;;;;;;;11.10;99.90;;;;;;5071641;28;19978;-78
2023/03/19 10:22:10;;;;;;;;;;;11.20;99.90;;;;;;5071672;28;20030;-77
2023/03/19 10:24:40;;;;;;;;;;;11.20;99.90;;;;;;5073578;28;19940;-77
2023/03/19 10:27:16;;;;;;;;;;;11.30;99.90;;;;;;5077795;28;19912;-77
2023/03/19 10:29:42;;;;;;;;;;;11.30;99.70;;;;;;5055064;28;19913;-78
2023/03/19 10:32:14;;;;;;;;;;;11.40;99.70;;;;;;5072786;28;19923;-78
2023/03/19 10:34:49;;;;;;;;;;;11.40;99.70;;;;;;5077352;28;19961;-77
2023/03/19 10:37:19;;;;;;;;;;;11.40;99.70;;;;;;5075916;28;20422;-77
2023/03/19 10:39:46;;;;;;;;;;;11.60;99.70;;;;;;5072595;28;19999;-77
2023/03/19 10:42:25;;;;;;;;;;;11.70;99.60;;;;;;5075194;28;19913;-78
2023/03/19 10:44:55;;;;;;;;;;;11.70;99.60;;;;;;5071820;28;19916;-77
2023/03/19 10:47:23;;;;;;;;;;;11.80;99.50;;;;;;5075590;28;19912;-78
2023/03/19 10:49:49;;;;;;;;;;;11.80;99.30;;;;;;5074936;28;19920;-78
2023/03/19 10:52:16;;;;;;;;;;;11.90;99.30;;;;;;5075272;28;19912;-78
2023/03/19 10:54:43;;;;;;;;;;;11.90;99.50;;;;;;5062025;28;20429;-77
2023/03/19 10:57:19;;;;;;;;;;;11.90;99.30;;;;;;5063844;28;19982;-78
2023/03/19 10:59:46;;;;;;;;;;;11.90;99.40;;;;;;5064920;28;19908;-77
2023/03/19 11:02:19;;;;;;;;;;;12.00;99.30;;;;;;5067730;28;20383;-78
2023/03/19 11:04:45;;;;;;;;;;;12.10;99.50;;;;;;5066447;28;20691;-77
2023/03/19 11:07:18;;;;;;;;;;;12.20;99.40;;;;;;5068035;28;20266;-78
2023/03/19 11:09:45;;;;;;;;;;;12.20;99.30;;;;;;5056301;28;19912;-77
2023/03/19 11:12:21;;;;;;;;;;;12.30;99.20;;;;;;5067723;28;19917;-78
2023/03/19 11:14:49;;;;;;;;;;;12.30;99.40;;;;;;5066247;28;19912;-77
2023/03/19 11:17:33;;;;;;;;;;;12.40;99.30;;;;;;5067833;28;19956;-78
2023/03/19 11:20:06;;;;;;;;;;;12.50;99.00;;;;;;5065252;28;20389;-77
2023/03/19 11:22:34;;;;;;;;;;;12.70;98.80;;;;;;5067012;28;19922;-77
2023/03/19 11:25:23;;;;;;;;;;;12.90;98.60;;;;;;5066698;28;19974;-77
2023/03/19 11:28:13;;;;;;;;;;;12.90;98.40;;;;;;5057513;28;19916;-78
2023/03/19 11:30:56;;;;;;;;;;;13.00;98.40;;;;;;5032204;28;20324;-78
2023/03/19 11:33:40;;;;;;;;;;;13.10;98.30;;;;;;5072793;28;19924;-78
2023/03/19 11:36:20;;;;;;;;;;;13.20;98.40;;;;;;5065435;28;19958;-77
2023/03/19 11:38:50;;;;;;;;;;;13.20;98.40;;;;;;5063482;28;19913;-78
2023/03/19 11:41:33;;;;;;;;;;;13.20;98.60;;;;;;5067399;28;19912;-78
2023/03/19 11:44:04;;;;;;;;;;;13.10;98.90;;;;;;5062509;28;20313;-78
2023/03/19 11:46:39;;;;;;;;;;;13.10;99.00;;;;;;5042776;28;19916;-78
2023/03/19 11:49:17;;;;;;;;;;;13.10;99.10;;;;;;5062200;28;19956;-78
2023/03/19 11:51:59;;;;;;;;;;;13.00;99.20;;;;;;5065995;28;19913;-78
2023/03/19 11:54:48;;;;;;;;;;;13.00;99.40;;;;;;5062060;28;19913;-77
2023/03/19 11:57:27;;;;;;;;;;;13.00;99.40;;;;;;5067163;28;20738;-77
2023/03/19 12:00:20;;;;;;;;;;;12.90;99.50;;;;;;5061739;28;19965;-77
2023/03/19 12:02:52;;;;;;;;;;;12.90;99.60;;;;;;5067029;28;19913;-77
2023/03/19 12:05:31;;;;;;;;;;;12.90;99.80;;;;;;5042480;28;19913;-77
2023/03/19 12:08:06;;;;;;;;;;;12.80;99.90;;;;;;5058468;28;20003;-77
2023/03/19 12:10:35;;;;;;;;;;;12.80;99.90;;;;;;5063555;28;20257;-77
2023/03/19 12:13:21;;;;;;;;;;;12.80;99.90;;;;;;5065896;28;19959;-77
2023/03/19 12:16:05;;;;;;;;;;;12.80;99.90;;;;;;5038758;28;20493;-77
2023/03/19 12:18:50;;;;;;;;;;;12.80;99.90;;;;;;5075314;28;19920;-77
2023/03/19 12:21:22;;;;;;;;;;;12.90;99.40;;;;;;5076522;28;19920;-77
2023/03/19 12:23:48;;;;;;;;;;;12.90;99.40;;;;;;5067365;28;19922;-77
2023/03/19 12:26:13;;;;;;;;;;;12.90;99.30;;;;;;5065797;28;19913;-77
2023/03/19 12:28:48;;;;;;;;;;;12.90;99.80;;;;;;5065337;28;19916;-77
2023/03/19 12:31:14;;;;;;;;;;;12.90;99.40;;;;;;5069236;28;19912;-77
2023/03/19 12:33:49;;;;;;;;;;;12.90;99.60;;;;;;5062927;28;19923;-77
2023/03/19 12:36:26;;;;;;;;;;;12.90;99.50;;;;;;5065436;28;20014;-77
2023/03/19 12:39:01;;;;;;;;;;;12.90;99.60;;;;;;5061383;28;19948;-77
2023/03/19 12:41:27;;;;;;;;;;;12.80;99.70;;;;;;5065860;28;19912;-78
2023/03/19 12:43:58;;;;;;;;;;;12.90;99.80;;;;;;5061030;28;19909;-77
2023/03/19 12:46:24;;;;;;;;;;;12.90;99.80;;;;;;5072051;28;20411;-77
2023/03/19 12:48:57;;;;;;;;;;;13.00;99.70;;;;;;5070477;28;19917;-77
2023/03/19 12:51:26;;;;;;;;;;;13.00;99.50;;;;;;5072379;28;19939;-78
2023/03/19 12:53:55;;;;;;;;;;;13.20;99.20;;;;;;5062899;28;19923;-78
2023/03/19 12:56:40;;;;;;;;;;;13.20;99.20;;;;;;5064961;28;19974;-78
2023/03/19 12:59:30;;;;;;;;;;;13.30;99.20;;;;;;5047585;28;19916;-78
2023/03/19 13:02:02;;;;;;;;;;;13.30;99.00;;;;;;5073289;28;19954;-78
2023/03/19 13:04:34;;;;;;;;;;;13.30;98.90;;;;;;5077268;28;19916;-78
2023/03/19 13:07:18;;;;;;;;;;;13.30;99.00;;;;;;5077350;28;19916;-78
2023/03/19 13:09:48;;;;;;;;;;;13.30;99.00;;;;;;5079325;28;20356;-78
2023/03/19 13:12:24;;;;;;;;;;;13.40;99.00;;;;;;5076893;28;19920;-78
2023/03/19 13:14:50;;;;;;;;;;;13.40;98.90;;;;;;5078323;28;20839;-78
2023/03/19 13:17:18;;;;;;;;;;;13.40;99.30;;;;;;5081071;28;19920;-78
2023/03/19 13:19:45;;;;;;;;;;;13.40;99.30;;;;;;5076385;28;19924;-78
2023/03/19 13:22:18;;;;;;;;;;;13.40;99.40;;;;;;5055959;28;19919;-78
2023/03/19 13:24:45;;;;;;;;;;;13.40;99.40;;;;;;5067740;28;19983;-78
2023/03/19 13:27:20;;;;;;;;;;;13.40;99.50;;;;;;5069692;28;20037;-78
2023/03/19 13:30:18;;;;;;;;;;;13.40;99.50;;;;;;5064103;28;20356;-78
2023/03/19 13:32:48;;;;;;;;;;;13.30;99.50;;;;;;5025165;28;19914;-78
2023/03/19 13:35:22;;;;;;;;;;;13.30;99.70;;;;;;5063709;28;19916;-78
2023/03/19 13:37:53;;;;;;;;;;;13.30;99.80;;;;;;5052482;28;20495;-78
2023/03/19 13:40:38;;;;;;;;;;;13.30;99.90;;;;;;5046930;28;19944;-78
2023/03/19 13:43:18;;;;;;;;;;;13.30;99.90;;;;;;5068469;28;20276;-78
2023/03/19 13:45:44;;;;;;;;;;;13.30;99.90;;;;;;5067937;28;20392;-78
2023/03/19 13:48:28;;;;;;;;;;;13.30;99.90;;;;;;5067488;28;19916;-77
2023/03/19 13:51:02;;;;;;;;;;;13.30;99.90;;;;;;5063653;28;20339;-78
2023/03/19 13:53:27;;;;;;;;;;;13.30;99.90;;;;;;5067390;28;20018;-77
2023/03/19 13:55:56;;;;;;;;;;;13.30;99.90;;;;;;5076434;28;20361;-78
2023/03/19 13:59:07;;;;;;;;;;;13.30;99.90;;;;;;5079058;28;19919;-77
2023/03/19 14:01:29;;;;;;;;;;;13.30;99.90;;;;;;5061963;28;19940;-77
2023/03/19 14:04:16;;;;;;;;;;;13.40;99.90;;;;;;5045653;28;20030;-77
2023/03/19 14:06:47;;;;;;;;;;;13.40;99.70;;;;;;5073852;28;19954;-77
2023/03/19 14:09:31;;;;;;;;;;;13.50;99.50;;;;;;5067910;28;19945;-77
2023/03/19 14:12:09;;;;;;;;;;;13.50;99.50;;;;;;5071289;28;20305;-78
2023/03/19 14:14:39;;;;;;;;;;;13.50;99.30;;;;;;5057307;28;19913;-78
2023/03/19 14:17:11;;;;;;;;;;;13.50;99.40;;;;;;5074210;28;20014;-77
2023/03/19 14:19:39;;;;;;;;;;;13.50;99.50;;;;;;5074294;28;20011;-78
2023/03/19 14:22:08;;;;;;;;;;;13.50;99.50;;;;;;5076106;28;20004;-78
2023/03/19 14:24:35;;;;;;;;;;;13.50;99.50;;;;;;5056191;28;19938;-78
2023/03/19 14:27:12;;;;;;;;;;;13.50;99.60;;;;;;5070085;28;19928;-78
2023/03/19 14:29:40;;;;;;;;;;;13.50;99.40;;;;;;5059412;28;19967;-78
2023/03/19 14:32:08;;;;;;;;;;;13.50;99.50;;;;;;5072548;28;19913;-78
2023/03/19 14:34:41;;;;;;;;;;;13.50;99.30;;;;;;5063107;28;19919;-78